createdAt,value
2022-08-26T00:01:30.625Z,101548.38
2022-08-26T00:03:57.545Z,101559.13
2022-08-26T00:06:24.922Z,101559.13
2022-08-26T00:08:51.819Z,101571.06
2022-08-26T00:11:26.542Z,101568.34
2022-08-26T00:13:56.707Z,101569.41
2022-08-26T00:16:28.253Z,101563.53
2022-08-26T00:18:56.070Z,101577.88
2022-08-26T00:21:22.601Z,101573.78
2022-08-26T00:23:50.086Z,101569.56
2022-08-26T00:26:16.589Z,101579.97
2022-08-26T00:28:43.034Z,101568.06
2022-08-26T00:31:11.111Z,101559.84
2022-08-26T00:33:38.635Z,101550.28
2022-08-26T00:36:05.959Z,101549.78
2022-08-26T00:38:32.638Z,101539.91
2022-08-26T00:40:59.536Z,101554.22
2022-08-26T00:43:26.806Z,101548.22
2022-08-26T00:46:05.039Z,101545.25
2022-08-26T00:48:33.923Z,101534.34
2022-08-26T00:51:11.805Z,101552.59
2022-08-26T00:53:45.667Z,101551.88
2022-08-26T00:56:24.160Z,101551.31
2022-08-26T00:58:51.097Z,101562.16
2022-08-26T01:01:18.221Z,101555.31
2022-08-26T01:03:49.733Z,101562.88
2022-08-26T01:06:16.268Z,101556.63
2022-08-26T01:08:43.433Z,101566.41
2022-08-26T01:11:11.371Z,101557.69
2022-08-26T01:13:38.738Z,101563.69
2022-08-26T01:16:10.496Z,101562.63
2022-08-26T01:18:37.162Z,101567.81
2022-08-26T01:21:20.178Z,101559.09
2022-08-26T01:23:50.183Z,101548.16
2022-08-26T01:26:21.954Z,101567.47
2022-08-26T01:28:51.860Z,101562.88
2022-08-26T01:31:22.647Z,101566.41
2022-08-26T01:34:13.317Z,101567.47
2022-08-26T01:36:40.627Z,101562.50
2022-08-26T01:39:08.655Z,101566.91
2022-08-26T01:41:37.969Z,101561.94
2022-08-26T01:44:09.825Z,101564.31
2022-08-26T01:46:36.944Z,101572.69
2022-08-26T01:49:06.751Z,101572.94
2022-08-26T01:51:37.243Z,101548.50
2022-08-26T01:54:06.162Z,101574.81
2022-08-26T01:56:36.446Z,101568.81
2022-08-26T01:59:06.938Z,101576.09
2022-08-26T02:01:36.242Z,101584.47
2022-08-26T02:04:35.394Z,101590.97
2022-08-26T02:07:08.270Z,101556.66
2022-08-26T02:09:41.351Z,101568.56
2022-08-26T02:12:09.164Z,101574.34
2022-08-26T02:14:43.790Z,101565.97
2022-08-26T02:17:11.209Z,101574.34
2022-08-26T02:19:41.657Z,101568.56
2022-08-26T02:22:13.944Z,101566.44
2022-08-26T02:24:56.193Z,101550.91
2022-08-26T02:27:31.976Z,101570.91
2022-08-26T02:30:08.292Z,101555.00
2022-08-26T02:32:34.903Z,101563.84
2022-08-26T02:35:01.799Z,101563.50
2022-08-26T02:37:30.854Z,101571.03
2022-08-26T02:39:57.698Z,101566.19
2022-08-26T02:42:24.154Z,101568.66
2022-08-26T02:44:51.778Z,101564.91
2022-08-26T02:47:18.251Z,101555.34
2022-08-26T02:49:47.396Z,101561.59
2022-08-26T02:52:14.456Z,101553.97
2022-08-26T02:54:41.193Z,101552.53
2022-08-26T02:57:08.060Z,101559.13
2022-08-26T02:59:36.041Z,101560.19
2022-08-26T03:02:03.255Z,101557.22
2022-08-26T03:04:31.080Z,101561.38
2022-08-26T03:07:00.047Z,101562.41
2022-08-26T03:09:27.116Z,101563.00
2022-08-26T03:11:55.301Z,101556.78
2022-08-26T03:14:23.937Z,101555.94
2022-08-26T03:16:54.440Z,101556.19
2022-08-26T03:19:23.314Z,101553.22
2022-08-26T03:21:50.117Z,101559.69
2022-08-26T03:24:18.813Z,101552.41
2022-08-26T03:26:52.554Z,101547.81
2022-08-26T03:29:38.118Z,101558.16
2022-08-26T03:32:06.172Z,101549.19
2022-08-26T03:34:32.986Z,101558.28
2022-08-26T03:36:59.577Z,101556.16
2022-08-26T03:39:26.332Z,101554.97
2022-08-26T03:41:53.701Z,101555.81
2022-08-26T03:44:20.578Z,101550.03
2022-08-26T03:46:47.074Z,101553.81
2022-08-26T03:49:15.155Z,101554.88
2022-08-26T03:51:42.087Z,101549.94
2022-08-26T03:54:09.255Z,101546.97
2022-08-26T03:56:36.653Z,101549.09
2022-08-26T03:59:04.943Z,101540.41
2022-08-26T04:01:34.232Z,101551.34
2022-08-26T04:04:01.414Z,101550.50
2022-08-26T04:06:42.403Z,101556.44
2022-08-26T04:09:20.735Z,101549.94
2022-08-26T04:11:50.493Z,101551.34
2022-08-26T04:14:21.162Z,101553.72
2022-08-26T04:16:48.692Z,101541.69
2022-08-26T04:19:16.650Z,101546.03
2022-08-26T04:21:45.025Z,101536.03
2022-08-26T04:24:14.063Z,101543.31
2022-08-26T04:26:42.820Z,101535.56
2022-08-26T04:29:18.101Z,101527.19
2022-08-26T04:31:44.956Z,101542.97
2022-08-26T04:34:11.488Z,101551.59
2022-08-26T04:36:41.085Z,101553.47
2022-08-26T04:39:11.975Z,101549.47
2022-08-26T04:41:39.625Z,101549.47
2022-08-26T04:44:07.793Z,101553.94
2022-08-26T04:46:34.882Z,101552.88
2022-08-26T04:49:01.521Z,101553.94
2022-08-26T04:51:28.438Z,101558.78
2022-08-26T04:54:01.070Z,101555.84
2022-08-26T04:56:30.749Z,101526.97
2022-08-26T04:58:57.229Z,101556.63
2022-08-26T05:01:24.054Z,101575.06
2022-08-26T05:03:51.441Z,101566.69
2022-08-26T05:06:19.954Z,101569.16
2022-08-26T05:08:46.785Z,101574.38
2022-08-26T05:11:13.545Z,101581.66
2022-08-26T05:13:40.374Z,101578.34
2022-08-26T05:16:11.633Z,101575.88
2022-08-26T05:18:39.543Z,101580.69
2022-08-26T05:21:07.171Z,101580.38
2022-08-26T05:23:35.848Z,101586.25
2022-08-26T05:26:06.671Z,101578.13
2022-08-26T05:28:34.647Z,101578.34
2022-08-26T05:31:02.088Z,101577.06
2022-08-26T05:33:29.346Z,101586.25
2022-08-26T05:35:55.826Z,101573.66
2022-08-26T05:38:23.382Z,101594.50
2022-08-26T05:40:52.894Z,101584.38
2022-08-26T05:43:20.215Z,101599.66
2022-08-26T05:45:49.228Z,101606.16
2022-08-26T05:48:18.512Z,101586.59
2022-08-26T05:50:51.638Z,101581.19
2022-08-26T05:53:20.748Z,101582.97
2022-08-26T05:55:50.579Z,101589.53
2022-08-26T05:58:20.197Z,101594.25
2022-08-26T06:01:07.596Z,101597.94
2022-08-26T06:03:36.160Z,101596.75
2022-08-26T06:06:04.508Z,101606.06
2022-08-26T06:08:33.933Z,101605.59
2022-08-26T06:11:04.453Z,101591.53
2022-08-26T06:13:33.647Z,101601.34
2022-08-26T06:16:05.363Z,101589.66
2022-08-26T06:18:36.335Z,101605.59
2022-08-26T06:21:24.690Z,101607.59
2022-08-26T06:24:11.465Z,101613.72
2022-08-26T06:26:39.419Z,101613.84
2022-08-26T06:29:09.678Z,101613.34
2022-08-26T06:31:36.968Z,101612.56
2022-08-26T06:34:10.351Z,101613.94
2022-08-26T06:36:37.870Z,101616.41
2022-08-26T06:39:10.024Z,101619.97
2022-08-26T06:41:43.135Z,101614.56
2022-08-26T06:44:09.952Z,101628.56
2022-08-26T06:46:36.698Z,101627.50
2022-08-26T06:49:03.402Z,101629.72
2022-08-26T06:51:33.221Z,101636.00
2022-08-26T06:54:01.949Z,101636.81
2022-08-26T06:56:34.676Z,101644.47
2022-08-26T06:59:01.861Z,101635.41
2022-08-26T07:01:32.099Z,101632.09
2022-08-26T07:04:00.832Z,101636.81
2022-08-26T07:06:28.253Z,101633.28
2022-08-26T07:09:04.745Z,101645.75
2022-08-26T07:11:35.060Z,101642.34
2022-08-26T07:14:01.661Z,101647.94
2022-08-26T07:16:28.877Z,101639.06
2022-08-26T07:18:56.108Z,101636.25
2022-08-26T07:21:24.469Z,101639.66
2022-08-26T07:23:51.705Z,101645.06
2022-08-26T07:26:22.817Z,101651.53
2022-08-26T07:28:53.465Z,101652.84
2022-08-26T07:31:25.178Z,101637.41
2022-08-26T07:33:52.089Z,101660.50
2022-08-26T07:36:19.478Z,101657.34
2022-08-26T07:38:48.014Z,101665.25
2022-08-26T07:41:17.403Z,101669.13
2022-08-26T07:43:45.421Z,101668.06
2022-08-26T07:46:20.737Z,101678.34
2022-08-26T07:48:54.138Z,101670.66
2022-08-26T07:51:21.922Z,101680.22
2022-08-26T07:53:52.304Z,101681.50
2022-08-26T07:56:19.608Z,101675.28
2022-08-26T07:58:50.509Z,101680.72
2022-08-26T08:01:18.454Z,101688.38
2022-08-26T08:03:45.349Z,101692.47
2022-08-26T08:06:11.993Z,101700.41
2022-08-26T08:08:40.734Z,101696.63
2022-08-26T08:11:07.502Z,101688.13
2022-08-26T08:13:37.426Z,101698.72
2022-08-26T08:16:05.026Z,101697.09
2022-08-26T08:18:31.731Z,101691.66
2022-08-26T08:21:10.818Z,101697.09
2022-08-26T08:23:45.281Z,101687.75
2022-08-26T08:26:11.899Z,101678.91
2022-08-26T08:28:39.739Z,101683.41
2022-08-26T08:31:08.167Z,101678.56
2022-08-26T08:33:35.303Z,101677.03
2022-08-26T08:36:01.974Z,101675.38
2022-08-26T08:38:29.580Z,101682.06
2022-08-26T08:40:56.060Z,101688.69
2022-08-26T08:43:40.189Z,101695.16
2022-08-26T08:46:16.447Z,101691.47
2022-08-26T08:48:48.270Z,101697.13
2022-08-26T08:51:33.961Z,101694.63
2022-08-26T08:54:02.640Z,101697.69
2022-08-26T08:56:38.949Z,101697.81
2022-08-26T08:59:12.959Z,101694.50
2022-08-26T09:01:52.451Z,101696.97
2022-08-26T09:04:54.344Z,101694.84
2022-08-26T09:07:26.103Z,101690.31
2022-08-26T09:10:00.886Z,101700.09
2022-08-26T09:12:31.088Z,101702.94
2022-08-26T09:15:07.745Z,101694.00
2022-08-26T09:17:49.459Z,101714.19
2022-08-26T09:20:42.145Z,101716.78
2022-08-26T09:23:12.301Z,101714.41
2022-08-26T09:25:50.147Z,101721.38
2022-08-26T09:28:20.193Z,101723.38
2022-08-26T09:30:59.075Z,101701.31
2022-08-26T09:33:31.431Z,101707.47
2022-08-26T09:36:26.285Z,101713.72
2022-08-26T09:38:54.320Z,101711.56
2022-08-26T09:41:27.651Z,101707.69
2022-08-26T09:44:33.158Z,101707.94
2022-08-26T09:47:05.559Z,101672.81
2022-08-26T09:49:36.428Z,101699.56
2022-08-26T09:52:13.677Z,101711.47
2022-08-26T09:54:44.307Z,101700.25
2022-08-26T09:57:27.270Z,101686.53
2022-08-26T09:59:55.491Z,101692.41
2022-08-26T10:02:36.961Z,101691.69
2022-08-26T10:05:09.652Z,101695.34
2022-08-26T10:07:50.346Z,101681.56
2022-08-26T10:10:33.034Z,101679.34
2022-08-26T10:13:24.014Z,101694.41
2022-08-26T10:16:11.096Z,101706.09
2022-08-26T10:18:47.719Z,101707.06
2022-08-26T10:21:23.512Z,101710.81
2022-08-26T10:23:55.340Z,101707.06
2022-08-26T10:26:35.974Z,101711.19
2022-08-26T10:29:12.277Z,101713.88
2022-08-26T10:31:51.622Z,101686.28
2022-08-26T10:34:18.788Z,101702.09
2022-08-26T10:37:14.460Z,101685.31
2022-08-26T10:40:00.914Z,101698.81
2022-08-26T10:42:54.851Z,101693.84
2022-08-26T10:45:26.169Z,101694.63
2022-08-26T10:48:02.920Z,101697.22
2022-08-26T10:50:38.295Z,101690.41
2022-08-26T10:53:17.795Z,101690.06
2022-08-26T10:55:56.327Z,101694.53
2022-08-26T10:58:38.381Z,101681.00
2022-08-26T11:01:34.830Z,101686.78
2022-08-26T11:04:28.802Z,101688.09
2022-08-26T11:07:34.264Z,101685.91
2022-08-26T11:10:10.282Z,101692.41
2022-08-26T11:12:37.366Z,101684.56
2022-08-26T11:15:10.178Z,101671.16
2022-08-26T11:17:45.864Z,101698.94
2022-08-26T11:20:34.084Z,101688.66
2022-08-26T11:23:13.150Z,101684.06
2022-08-26T11:25:57.954Z,101682.19
2022-08-26T11:28:44.096Z,101663.25
2022-08-26T11:31:31.769Z,101693.91
2022-08-26T11:34:07.130Z,101693.38
2022-08-26T11:36:54.397Z,101680.63
2022-08-26T11:39:33.354Z,101701.16
2022-08-26T11:42:32.499Z,101701.41
2022-08-26T11:45:01.382Z,101693.56
2022-08-26T11:47:31.912Z,101693.56
2022-08-26T11:50:20.163Z,101697.41
2022-08-26T11:52:56.366Z,101694.38
2022-08-26T11:55:24.234Z,101691.56
2022-08-26T11:57:57.589Z,101691.97
2022-08-26T12:00:33.726Z,101702.84
2022-08-26T12:03:06.070Z,101678.94
2022-08-26T12:05:42.456Z,101696.16
2022-08-26T12:08:12.635Z,101674.19
2022-08-26T12:10:40.125Z,101692.19
2022-08-26T12:13:07.203Z,101692.38
2022-08-26T12:15:35.491Z,101696.69
2022-08-26T12:18:29.298Z,101659.41
2022-08-26T12:20:59.384Z,101684.47
2022-08-26T12:23:34.948Z,101684.47
2022-08-26T12:26:21.021Z,101684.41
2022-08-26T12:28:59.758Z,101676.56
2022-08-26T12:31:28.197Z,101689.41
2022-08-26T12:33:59.166Z,101667.41
2022-08-26T12:36:41.381Z,101692.94
2022-08-26T12:39:10.627Z,101692.63
2022-08-26T12:41:48.122Z,101698.88
2022-08-26T12:44:53.099Z,101696.16
2022-08-26T12:47:43.459Z,101699.69
2022-08-26T12:50:18.861Z,101695.06
2022-08-26T12:53:01.723Z,101697.88
2022-08-26T12:55:41.336Z,101716.41
2022-08-26T12:58:21.207Z,101706.03
2022-08-26T13:01:18.603Z,101727.88
2022-08-26T13:03:46.040Z,101714.63
2022-08-26T13:06:22.256Z,101706.22
2022-08-26T13:08:54.473Z,101709.34
2022-08-26T13:11:29.441Z,101696.50
2022-08-26T13:14:08.187Z,101708.00
2022-08-26T13:16:36.651Z,101706.88
2022-08-26T13:19:12.224Z,101701.94
2022-08-26T13:21:56.412Z,101701.28
2022-08-26T13:24:28.697Z,101695.00
2022-08-26T13:26:55.254Z,101706.72
2022-08-26T13:29:22.133Z,101709.25
2022-08-26T13:31:49.149Z,101705.28
2022-08-26T13:34:19.200Z,101706.78
2022-08-26T13:36:47.710Z,101707.38
2022-08-26T13:39:14.517Z,101698.38
2022-08-26T13:41:41.143Z,101699.31
2022-08-26T13:44:07.677Z,101698.72
2022-08-26T13:46:34.354Z,101698.38
2022-08-26T13:49:02.175Z,101693.19
2022-08-26T13:51:29.959Z,101700.78
2022-08-26T13:53:57.417Z,101701.44
2022-08-26T13:56:27.521Z,101694.25
2022-08-26T13:58:54.025Z,101693.53
2022-08-26T14:01:20.623Z,101701.97
2022-08-26T14:03:47.253Z,101696.72
2022-08-26T14:06:14.182Z,101701.34
2022-08-26T14:08:41.908Z,101696.25
2022-08-26T14:11:08.718Z,101699.34
2022-08-26T14:13:35.471Z,101699.22
2022-08-26T14:16:05.153Z,101687.94
2022-08-26T14:18:36.323Z,101675.16
2022-08-26T14:21:08.128Z,101672.59
2022-08-26T14:23:34.982Z,101686.09
2022-08-26T14:26:03.922Z,101681.06
2022-08-26T14:28:30.431Z,101684.78
2022-08-26T14:30:58.307Z,101689.47
2022-08-26T14:33:28.695Z,101684.19
2022-08-26T14:36:15.203Z,101684.91
2022-08-26T14:38:41.975Z,101678.91
2022-08-26T14:41:09.484Z,101672.50
2022-08-26T14:43:37.184Z,101678.00
2022-08-26T14:46:04.182Z,101674.72
2022-08-26T14:48:30.676Z,101675.22
2022-08-26T14:50:57.171Z,101684.03
2022-08-26T14:53:42.280Z,101677.44
2022-08-26T14:56:09.733Z,101682.56
2022-08-26T14:58:38.384Z,101677.78
2022-08-26T15:01:05.051Z,101674.34
2022-08-26T15:03:31.521Z,101670.94
2022-08-26T15:05:58.042Z,101676.38
2022-08-26T15:08:24.562Z,101679.75
2022-08-26T15:10:51.120Z,101671.69
2022-08-26T15:13:17.599Z,101674.50
2022-08-26T15:15:44.530Z,101675.06
2022-08-26T15:18:11.212Z,101673.91
2022-08-26T15:20:38.255Z,101675.22
2022-08-26T15:23:06.592Z,101674.41
2022-08-26T15:25:33.318Z,101669.00
2022-08-26T15:27:59.826Z,101667.31
2022-08-26T15:30:27.339Z,101670.88
2022-08-26T15:32:53.832Z,101665.00
2022-08-26T15:35:20.294Z,101673.06
2022-08-26T15:37:46.858Z,101659.41
2022-08-26T15:40:13.816Z,101658.91
2022-08-26T15:42:40.388Z,101664.69
2022-08-26T15:45:07.462Z,101662.63
2022-08-26T15:47:34.386Z,101650.81
2022-08-26T15:50:20.550Z,101650.16
2022-08-26T15:52:47.977Z,101659.38
2022-08-26T15:55:14.516Z,101653.59
2022-08-26T15:57:41.129Z,101662.44
2022-08-26T16:00:09.588Z,101655.59
2022-08-26T16:02:36.084Z,101662.69
2022-08-26T16:05:02.752Z,101655.97
2022-08-26T16:07:31.745Z,101659.31
2022-08-26T16:09:58.499Z,101652.50
2022-08-26T16:12:24.979Z,101651.19
2022-08-26T16:14:51.572Z,101648.97
2022-08-26T16:17:20.606Z,101649.69
2022-08-26T16:19:47.116Z,101654.19
2022-08-26T16:22:13.679Z,101653.50
2022-08-26T16:24:40.168Z,101647.81
2022-08-26T16:27:06.807Z,101643.97
2022-08-26T16:29:33.400Z,101631.22
2022-08-26T16:31:59.930Z,101641.94
2022-08-26T16:34:26.357Z,101644.66
2022-08-26T16:36:53.108Z,101638.44
2022-08-26T16:39:19.588Z,101648.69
2022-08-26T16:41:46.100Z,101642.19
2022-08-26T16:44:12.803Z,101642.19
2022-08-26T16:46:39.725Z,101643.75
2022-08-26T16:49:06.571Z,101646.69
2022-08-26T16:51:38.093Z,101634.66
2022-08-26T16:54:06.976Z,101646.13
2022-08-26T16:56:34.525Z,101637.75
2022-08-26T16:59:02.416Z,101649.66
2022-08-26T17:01:29.027Z,101648.84
2022-08-26T17:03:55.615Z,101640.97
2022-08-26T17:06:22.083Z,101648.16
2022-08-26T17:08:48.614Z,101654.06
2022-08-26T17:11:15.567Z,101643.22
2022-08-26T17:13:42.623Z,101652.16
2022-08-26T17:16:14.406Z,101658.88
2022-08-26T17:18:41.339Z,101647.78
2022-08-26T17:21:11.555Z,101656.59
2022-08-26T17:23:39.091Z,101659.00
2022-08-26T17:26:05.736Z,101658.75
2022-08-26T17:28:32.883Z,101663.81
2022-08-26T17:31:00.123Z,101659.09
2022-08-26T17:33:27.703Z,101664.28
2022-08-26T17:35:55.392Z,101656.38
2022-08-26T17:38:22.493Z,101662.88
2022-08-26T17:40:49.616Z,101661.66
2022-08-26T17:43:16.707Z,101672.16
2022-08-26T17:45:43.422Z,101667.22
2022-08-26T17:48:11.011Z,101662.75
2022-08-26T17:50:42.666Z,101662.97
2022-08-26T17:53:18.466Z,101663.66
2022-08-26T17:55:45.727Z,101665.31
2022-08-26T17:58:14.555Z,101666.59
2022-08-26T18:00:48.170Z,101668.72
2022-08-26T18:03:15.250Z,101667.91
2022-08-26T18:05:42.747Z,101674.38
2022-08-26T18:08:09.782Z,101675.09
2022-08-26T18:10:36.255Z,101676.81
2022-08-26T18:13:02.789Z,101680.47
2022-08-26T18:15:29.356Z,101670.72
2022-08-26T18:17:55.791Z,101680.22
2022-08-26T18:20:22.392Z,101674.19
2022-08-26T18:22:48.913Z,101684.66
2022-08-26T18:25:18.978Z,101684.28
2022-08-26T18:27:45.389Z,101695.81
2022-08-26T18:30:20.660Z,101676.13
2022-08-26T18:32:48.301Z,101691.09
2022-08-26T18:35:15.231Z,101680.19
2022-08-26T18:37:41.936Z,101694.53
2022-08-26T18:40:10.778Z,101683.44
2022-08-26T18:42:37.390Z,101706.38
2022-08-26T18:45:05.960Z,101701.50
2022-08-26T18:47:32.903Z,101698.56
2022-08-26T18:50:00.841Z,101703.00
2022-08-26T18:52:27.677Z,101712.16
2022-08-26T18:54:54.259Z,101704.13
2022-08-26T18:57:20.733Z,101711.63
2022-08-26T18:59:47.132Z,101716.44
2022-08-26T19:02:13.698Z,101720.91
2022-08-26T19:04:40.290Z,101711.19
2022-08-26T19:07:07.410Z,101714.72
2022-08-26T19:09:34.221Z,101719.31
2022-08-26T19:12:03.723Z,101710.28
2022-08-26T19:14:31.628Z,101722.31
2022-08-26T19:16:58.693Z,101717.19
2022-08-26T19:19:25.199Z,101723.25
2022-08-26T19:21:52.552Z,101726.56
2022-08-26T19:24:20.558Z,101728.66
2022-08-26T19:26:57.894Z,101729.28
2022-08-26T19:29:27.269Z,101738.00
2022-08-26T19:31:53.804Z,101730.78
2022-08-26T19:34:20.839Z,101738.28
2022-08-26T19:36:48.418Z,101740.66
2022-08-26T19:39:14.968Z,101735.03
2022-08-26T19:41:41.398Z,101738.56
2022-08-26T19:44:34.576Z,101744.22
2022-08-26T19:47:03.500Z,101731.81
2022-08-26T19:49:29.971Z,101735.34
2022-08-26T19:51:56.648Z,101731.81
2022-08-26T19:54:23.159Z,101730.97
2022-08-26T19:56:49.896Z,101742.19
2022-08-26T19:59:17.414Z,101741.56
2022-08-26T20:01:43.945Z,101738.91
2022-08-26T20:04:10.481Z,101743.28
2022-08-26T20:06:36.877Z,101742.28
2022-08-26T20:09:03.381Z,101741.50
2022-08-26T20:11:29.808Z,101745.69
2022-08-26T20:13:57.140Z,101747.78
2022-08-26T20:16:23.625Z,101745.25
2022-08-26T20:19:08.860Z,101743.59
2022-08-26T20:21:39.204Z,101747.34
2022-08-26T20:24:13.031Z,101744.66
2022-08-26T20:26:41.868Z,101732.84
2022-08-26T20:29:10.683Z,101724.72
2022-08-26T20:31:38.373Z,101738.81
2022-08-26T20:34:05.997Z,101742.50
2022-08-26T20:36:33.582Z,101743.09
2022-08-26T20:39:00.415Z,101739.41
2022-08-26T20:41:27.579Z,101750.44
2022-08-26T20:43:55.059Z,101742.38
2022-08-26T20:46:24.885Z,101738.06
2022-08-26T20:48:53.082Z,101751.84
2022-08-26T20:51:20.198Z,101758.06
2022-08-26T20:53:46.940Z,101743.78
2022-08-26T20:56:15.177Z,101746.31
2022-08-26T20:58:42.228Z,101743.22
2022-08-26T21:01:18.168Z,101728.50
2022-08-26T21:03:45.742Z,101743.03
2022-08-26T21:06:12.542Z,101743.84
2022-08-26T21:08:42.655Z,101743.03
2022-08-26T21:11:10.103Z,101742.44
2022-08-26T21:13:54.431Z,101748.09
2022-08-26T21:16:24.689Z,101754.72
2022-08-26T21:18:51.434Z,101743.13
2022-08-26T21:21:18.671Z,101743.56
2022-08-26T21:23:51.673Z,101737.56
2022-08-26T21:26:18.238Z,101732.38
2022-08-26T21:28:46.291Z,101738.59
2022-08-26T21:31:16.419Z,101693.19
2022-08-26T21:33:43.103Z,101739.25
2022-08-26T21:36:11.542Z,101704.03
2022-08-26T21:38:38.306Z,101745.72
2022-08-26T21:41:08.438Z,101742.41
2022-08-26T21:43:36.705Z,101737.63
2022-08-26T21:46:14.444Z,101726.09
2022-08-26T21:48:50.528Z,101730.84
2022-08-26T21:51:19.962Z,101742.47
2022-08-26T21:53:46.861Z,101743.28
2022-08-26T21:56:17.999Z,101754.72
2022-08-26T21:58:44.816Z,101753.66
2022-08-26T22:01:14.873Z,101756.59
2022-08-26T22:03:47.575Z,101755.31
2022-08-26T22:06:17.474Z,101689.03
2022-08-26T22:08:44.051Z,101753.25
2022-08-26T22:11:11.007Z,101755.75
2022-08-26T22:13:39.479Z,101735.84
2022-08-26T22:16:06.962Z,101765.09
2022-08-26T22:18:34.911Z,101766.53
2022-08-26T22:21:05.396Z,101760.72
2022-08-26T22:23:32.582Z,101761.56
2022-08-26T22:25:59.828Z,101769.22
2022-08-26T22:28:27.092Z,101757.81
2022-08-26T22:30:55.651Z,101753.66
2022-08-26T22:33:22.959Z,101750.75
2022-08-26T22:35:50.986Z,101759.91
2022-08-26T22:38:17.843Z,101748.31
2022-08-26T22:40:50.429Z,101769.47
2022-08-26T22:43:18.435Z,101764.28
2022-08-26T22:45:47.924Z,101763.22
2022-08-26T22:48:17.953Z,101769.03
2022-08-26T22:50:46.359Z,101765.94
2022-08-26T22:53:13.475Z,101756.00
2022-08-26T22:55:39.971Z,101764.25
2022-08-26T22:58:06.965Z,101759.50
2022-08-26T23:00:34.372Z,101759.50
2022-08-26T23:03:02.262Z,101755.97
2022-08-26T23:05:29.611Z,101747.47
2022-08-26T23:07:56.827Z,101752.84
2022-08-26T23:10:24.272Z,101743.53
2022-08-26T23:12:52.452Z,101753.28
2022-08-26T23:15:20.934Z,101747.66
2022-08-26T23:17:48.374Z,101745.38
2022-08-26T23:20:25.147Z,101744.97
2022-08-26T23:22:52.639Z,101744.31
2022-08-26T23:25:19.632Z,101739.13
2022-08-26T23:27:47.133Z,101742.88
2022-08-26T23:30:19.106Z,101737.47
2022-08-26T23:32:45.991Z,101735.19
2022-08-26T23:35:14.344Z,101731.03
2022-08-26T23:37:44.156Z,101733.94
2022-08-26T23:40:17.426Z,101731.88
2022-08-26T23:42:44.377Z,101720.47
2022-08-26T23:45:13.528Z,101725.84
2022-08-26T23:47:41.237Z,101725.22
2022-08-26T23:50:08.748Z,101715.44
2022-08-26T23:52:53.884Z,101719.41
2022-08-26T23:55:20.713Z,101727.91
2022-08-26T23:57:47.392Z,101720.19
